AirNav   Pilot Hours Calculator
 
 635 users online  

60CL CHP Academy Airport
Bryte, California, USA

GOING TO BRYTE?


FAA INFORMATION EFFECTIVE 23 MAY 2019

Location

FAA Identifier: 60CL
Lat/Long: 38-35-55.6580N / 121-33-37.8430W
38-35.927633N / 121-33.630717W
38.5987939 / -121.5605119
(estimated)
Elevation: 20 ft. / 6 m (estimated)
Variation: 16E (1985)
From city: 2 miles NW of BRYTE, CA
Time zone: UTC -7 (UTC -8 during Standard Time)
Zip code: 95605

Airport Operations

Airport use: Private use. Permission required prior to landing
Activation date: 05/1977
Control tower: no
ARTCC: OAKLAND CENTER
FSS: RANCHO MURIETA FLIGHT SERVICE STATION
Attendance: UNATNDD
Wind indicator: yes
Segmented circle: no

Airport Communications

WX ASOS at SMF (6 nm N): PHONE 916-649-3996
WX ASOS at SAC (6 nm SE): PHONE 916-421-0923
WX AWOS-3 at MCC (9 nm NE): 125.975 (916-641-1272)
WX AWOS-3 at EDU (11 nm W): 119.025 (530-754-6839)
WX AWOS-3 at MHR (13 nm E): 118.325 (916-366-3371)
WX AWOS-3 at DWA (14 nm W): 125.775 (530-750-2759)

Nearby radio navigation aids

VOR radial/distance  VOR name  Freq  Var
MCCr224/8.4MC CLELLAN VOR/DME109.2017E
SACr340/9.3SACRAMENTO VORTAC115.2017E
MYVr163/30.0MARYSVILLE VOR/DME110.8016E
ILAr124/35.8WILLIAMS VORTAC114.4018E
HNWr242/38.8HANGTOWN VOR/DME115.5017E

Airport Services

Runway Information

Runway 5/23

Dimensions: 1400 x 24 ft. / 427 x 7 m
Surface: asphalt
RUNWAY 5  RUNWAY 23
Traffic pattern: leftright

Runway 16/34

Dimensions: 1200 x 20 ft. / 366 x 6 m
Surface: asphalt
RUNWAY 16  RUNWAY 34
Traffic pattern: rightleft

Airport Ownership and Management from official FAA records

Ownership: Publicly-owned
Owner: CALIFORNIA HIGHWAY PATROL
601 N. 7TH STREET
SACRAMENTO, CA 95811
Phone (916) 843-3300
Manager: M. W. SEDAM
601 N. 7TH STREET
SACRAMENTO, CA 95811
Phone (916) 843-3300

Airport Operational Statistics

Aircraft based on the field: 2
Single engine airplanes: 1
Helicopters: 1
    

Additional Remarks

FOR CD CTC NORCAL APCH AT 916-361-6874.

Instrument Procedures

There are no published instrument procedures at 60CL.

Some nearby airports with instrument procedures:

KSMF - Sacramento International Airport (6 nm N)
KSAC - Sacramento Executive Airport (6 nm SE)
KMCC - Mc Clellan Airfield (9 nm NE)
KEDU - University Airport (11 nm W)
KMHR - Sacramento Mather Airport (13 nm E)
KDWA - Yolo County Airport (14 nm W)
O41 - Watts-Woodland Airport (15 nm W)
 
Loc | Ops | Rwys | IFR | FBO | Links
Com | Nav | Svcs | Stats | Notes

Sonoma Jet Center
 
Area around 60CL (CHP Academy Airport)
 
Road maps at: MapQuest Bing Google
 
Aerial photo
No photo
 
Sectional chart

 
Airport distance calculator
Flying to CHP Academy Airport? Find the distance to fly.

From to 60CL

Sunrise and sunset
Times for 23-May-2019
 Local
(UTC-7)
 Zulu
(UTC)
Morning civil twilight05:1912:19
Sunrise05:4912:49
Sunset20:1703:17
Evening civil twilight20:4703:47

Current date and time
Zulu (UTC)  24-May-2019 04:22:26
Local (UTC-7)  23-May-2019 21:22:26
 
METAR
KSMF 
6nm N 
240353Z 14010KT 10SM FEW055 FEW100 19/11 A2986 RMK AO2 SLP112 T01940111
KSAC 
7nm SE 
240353Z 16003KT 10SM SCT085 19/12 A2988 RMK AO2 SLP119 T01940122
KMCC 
9nm NE 
240400Z AUTO 14009KT 10SM SCT039 SCT046 19/12 A2989 RMK AO2
KEDU 
11nm W 
240400Z AUTO 18008KT 10SM BKN110 20/13 A2988 RMK AO1
KMHR 
14nm E 
240345Z 12006KT 10SM BKN070 BKN095 17/13 A2987 RMK PRESRR
TAF
KSMF 
6nm N 
240027Z 2400/2424 VRB05KT P6SM BKN050 TEMPO 2400/2403 12015KT FM240600 17006KT P6SM BKN120
KSAC 
7nm SE 
240029Z 2400/2424 VRB05KT P6SM BKN050 TEMPO 2400/2403 12015KT FM240600 19006KT P6SM BKN120
KMCC 
9nm NE 
240029Z 2400/2424 VRB05KT P6SM BKN050 TEMPO 2400/2403 11015KT FM240300 19006KT P6SM BKN120
KMHR 
14nm E 
240030Z 2400/2424 22006KT P6SM BKN050 TEMPO 2400/2403 12012KT FM240600 15006KT P6SM BKN120
NOTAMs
Click for the latest NOTAMs
NOTAMs are issued by the DoD/FAA and will open in a separate window not controlled by AirNav.

 

 
 

Would you like to see your business listed on this page?

 If your business provides an interesting product or service to pilots, flight crews, aircraft, or users of the CHP Academy Airport, you should consider listing it here.  To start the listing process, click on the button below
 
Add a business
 

Other Pages about CHP Academy Airport

Update a link
 
Copyright © AirNav, LLC. All rights reserved. Privacy Policy  Contact